Time;durP1;ratioP1;P1;durP2;ratioP2;P2;SDS_P1;SDS_P2;PMS_P1;PMS_P2;Temp;Humidity;BMP_temperature;BMP_pressure;BME280_temperature;BME280_humidity;BME280_pressure;Samples;Min_cycle;Max_cycle;Signal;HPM_P1;HPM_P2
2023/05/13 04:06:17;;;;;;;1.00;1.00;;;11.00;99.90;;;;;;4993309;23;20282;-68
2023/05/13 04:08:43;;;;;;;2.60;1.33;;;11.00;99.90;;;;;;4993643;28;20634;-67
2023/05/13 04:11:08;;;;;;;1.33;1.30;;;11.00;99.90;;;;;;4994076;28;20263;-70
2023/05/13 04:13:35;;;;;;;1.80;1.43;;;10.90;99.90;;;;;;4993506;28;20181;-69
2023/05/13 04:16:01;;;;;;;1.90;1.60;;;10.90;99.90;;;;;;4975998;28;20204;-70
2023/05/13 04:18:28;;;;;;;1.35;1.30;;;10.90;99.90;;;;;;4974701;28;20229;-69
2023/05/13 04:20:54;;;;;;;1.27;1.17;;;10.90;99.90;;;;;;4974159;28;20280;-70
2023/05/13 04:23:19;;;;;;;1.33;1.23;;;10.90;99.90;;;;;;4974156;28;20304;-69
2023/05/13 04:25:52;;;;;;;2.10;1.97;;;10.90;99.90;;;;;;4974468;28;20519;-70
2023/05/13 04:28:19;;;;;;;1.67;1.58;;;10.80;99.90;;;;;;4974724;28;20184;-68
2023/05/13 04:30:45;;;;;;;1.75;1.65;;;10.80;99.90;;;;;;4974418;28;20172;-68
2023/05/13 04:33:10;;;;;;;1.90;1.80;;;10.80;99.90;;;;;;4974286;28;20180;-70
2023/05/13 04:35:36;;;;;;;1.87;1.77;;;10.80;99.90;;;;;;4958886;28;20242;-67
2023/05/13 04:38:03;;;;;;;1.73;1.63;;;10.80;99.90;;;;;;4978243;28;20177;-70
2023/05/13 04:40:28;;;;;;;1.83;1.73;;;10.80;99.90;;;;;;4978281;28;20467;-69
2023/05/13 04:42:54;;;;;;;1.67;1.57;;;10.80;99.90;;;;;;4978290;28;20172;-68
2023/05/13 04:45:20;;;;;;;2.03;1.93;;;10.80;99.90;;;;;;4977695;28;20185;-70
2023/05/13 04:47:46;;;;;;;1.40;1.30;;;10.80;99.90;;;;;;4961004;28;20181;-67
2023/05/13 04:50:11;;;;;;;1.47;1.30;;;10.80;99.90;;;;;;4960684;28;20822;-70
2023/05/13 04:52:37;;;;;;;2.83;1.80;;;10.90;99.90;;;;;;4977916;28;20915;-68
2023/05/13 04:55:03;;;;;;;1.33;1.27;;;10.90;99.90;;;;;;4977765;28;20196;-69
2023/05/13 04:57:29;;;;;;;5.87;2.00;;;11.00;99.90;;;;;;4977973;28;20172;-69
2023/05/13 04:59:55;;;;;;;1.90;1.63;;;11.00;99.90;;;;;;4977789;28;20445;-70
2023/05/13 05:02:20;;;;;;;1.73;1.63;;;11.10;99.90;;;;;;4977951;28;20479;-70
2023/05/13 05:04:48;;;;;;;2.00;1.83;;;11.10;99.90;;;;;;4977388;28;20476;-69
2023/05/13 05:07:13;;;;;;;1.53;1.17;;;11.10;99.90;;;;;;4977673;28;20196;-69
2023/05/13 05:09:39;;;;;;;1.40;1.30;;;11.20;99.90;;;;;;4977788;28;20384;-67
2023/05/13 05:12:05;;;;;;;2.00;1.83;;;11.20;99.90;;;;;;4960272;28;20637;-70
2023/05/13 05:14:30;;;;;;;3.13;2.23;;;11.20;99.90;;;;;;4959916;28;20198;-67
2023/05/13 05:16:56;;;;;;;1.60;1.50;;;11.30;99.90;;;;;;4977521;28;20415;-71
2023/05/13 05:19:22;;;;;;;1.83;1.73;;;11.30;99.90;;;;;;4960097;28;20691;-67
2023/05/13 05:21:50;;;;;;;1.80;1.70;;;11.30;99.90;;;;;;4977733;28;20213;-69
2023/05/13 05:24:15;;;;;;;1.93;1.83;;;11.30;99.90;;;;;;4977101;28;20225;-67
2023/05/13 05:26:41;;;;;;;2.13;1.93;;;11.40;99.90;;;;;;4977278;28;20445;-70
2023/05/13 05:29:06;;;;;;;1.10;1.10;;;11.40;99.90;;;;;;4977417;28;20170;-70
2023/05/13 05:31:32;;;;;;;1.70;1.60;;;11.40;99.90;;;;;;4976711;28;20190;-70
2023/05/13 05:33:59;;;;;;;1.90;1.80;;;11.50;99.90;;;;;;4976854;28;20197;-67
2023/05/13 05:36:25;;;;;;;1.60;1.50;;;11.50;99.90;;;;;;4977554;28;20673;-69
2023/05/13 05:38:50;;;;;;;1.90;1.70;;;11.40;99.90;;;;;;4977067;28;20460;-68
2023/05/13 05:41:16;;;;;;;1.50;1.37;;;11.50;99.90;;;;;;4959675;28;20213;-69
2023/05/13 05:43:42;;;;;;;1.27;1.27;;;11.60;99.90;;;;;;4976815;28;20167;-66
2023/05/13 05:46:08;;;;;;;1.90;1.80;;;11.60;99.90;;;;;;4958504;28;20565;-67
2023/05/13 05:48:33;;;;;;;1.23;1.13;;;11.60;99.90;;;;;;4959455;28;20173;-68
2023/05/13 05:50:59;;;;;;;1.50;1.40;;;11.70;99.90;;;;;;4977493;28;20911;-67
2023/05/13 05:53:24;;;;;;;1.80;1.70;;;11.70;99.90;;;;;;4976780;28;20606;-66
2023/05/13 05:55:50;;;;;;;1.67;1.57;;;11.80;99.90;;;;;;4976682;28;20191;-68
2023/05/13 05:58:16;;;;;;;1.90;1.80;;;11.80;99.90;;;;;;4976707;28;20197;-69
2023/05/13 06:00:42;;;;;;;1.30;1.20;;;11.90;99.90;;;;;;4976814;28;20241;-71
2023/05/13 06:03:07;;;;;;;1.80;1.70;;;11.90;99.90;;;;;;4976541;28;20414;-69
2023/05/13 06:05:34;;;;;;;2.20;1.53;;;12.00;99.90;;;;;;4959067;28;20237;-70
2023/05/13 06:07:59;;;;;;;1.60;1.50;;;12.00;99.90;;;;;;4976742;28;20218;-72
2023/05/13 06:10:25;;;;;;;1.63;1.50;;;12.00;99.90;;;;;;4976493;28;20407;-72
2023/05/13 06:12:50;;;;;;;1.77;1.67;;;12.00;99.90;;;;;;4976608;28;20215;-68
2023/05/13 06:15:16;;;;;;;1.87;1.77;;;12.00;99.90;;;;;;4975928;28;20195;-73
2023/05/13 06:17:42;;;;;;;2.07;1.97;;;12.00;99.90;;;;;;4976968;28;20234;-70
2023/05/13 06:20:08;;;;;;;1.47;1.40;;;11.90;99.90;;;;;;4976298;28;20198;-70
2023/05/13 06:22:33;;;;;;;1.53;1.43;;;12.00;99.90;;;;;;4979648;28;20183;-72
2023/05/13 06:24:59;;;;;;;1.70;1.60;;;12.00;99.90;;;;;;4976729;28;20417;-69
2023/05/13 06:27:24;;;;;;;2.20;2.07;;;12.10;99.90;;;;;;4995398;28;20178;-72
2023/05/13 06:29:50;;;;;;;2.00;1.90;;;12.10;99.90;;;;;;4976455;28;20189;-71
2023/05/13 06:32:16;;;;;;;1.90;1.80;;;12.20;99.90;;;;;;4975466;28;20184;-71
2023/05/13 06:34:45;;;;;;;1.30;1.20;;;12.30;99.90;;;;;;4974957;28;20669;-72
2023/05/13 06:37:14;;;;;;;1.50;1.40;;;12.30;99.90;;;;;;4975885;28;20533;-72
2023/05/13 06:39:39;;;;;;;2.10;1.90;;;12.40;99.90;;;;;;4975880;28;20820;-71
2023/05/13 06:42:05;;;;;;;2.40;2.30;;;12.40;99.90;;;;;;4976160;28;20410;-71
2023/05/13 06:44:31;;;;;;;2.20;1.67;;;12.40;99.90;;;;;;4975394;28;20606;-71
2023/05/13 06:46:56;;;;;;;2.10;1.90;;;12.40;99.90;;;;;;4976148;28;20450;-71
2023/05/13 06:49:25;;;;;;;1.20;1.07;;;12.50;99.90;;;;;;4985072;28;20186;-72
2023/05/13 06:51:51;;;;;;;1.60;1.50;;;12.50;99.90;;;;;;4994418;28;20174;-73
2023/05/13 06:54:16;;;;;;;1.47;1.47;;;12.50;99.90;;;;;;4992781;28;20962;-70
2023/05/13 06:56:42;;;;;;;2.67;2.47;;;12.50;99.90;;;;;;4992736;28;20170;-72
2023/05/13 06:59:08;;;;;;;2.70;2.17;;;12.50;99.90;;;;;;4993007;28;20584;-73
2023/05/13 07:01:33;;;;;;;3.10;2.90;;;12.50;99.90;;;;;;4995350;28;20170;-73
2023/05/13 07:03:59;;;;;;;2.20;1.73;;;12.50;99.90;;;;;;4996832;28;20257;-71
2023/05/13 07:06:25;;;;;;;1.40;1.30;;;12.50;99.90;;;;;;4993323;28;20190;-71
2023/05/13 07:08:52;;;;;;;1.90;1.80;;;12.70;99.90;;;;;;4976104;28;20223;-72
2023/05/13 07:11:17;;;;;;;1.53;1.17;;;12.70;99.90;;;;;;4975594;28;20509;-68
2023/05/13 07:13:43;;;;;;;1.57;1.47;;;12.80;99.90;;;;;;4975166;28;20257;-71
2023/05/13 07:16:09;;;;;;;1.60;1.50;;;12.80;99.90;;;;;;4975276;28;20195;-71
2023/05/13 07:18:35;;;;;;;1.90;1.77;;;12.90;99.90;;;;;;4975575;28;20203;-73
2023/05/13 07:21:00;;;;;;;1.83;1.73;;;13.00;99.90;;;;;;4975147;28;20521;-72
2023/05/13 07:23:26;;;;;;;2.40;1.83;;;13.00;99.90;;;;;;4973851;28;20300;-73
2023/05/13 07:25:52;;;;;;;1.83;1.60;;;13.20;99.90;;;;;;4975254;28;20311;-69
2023/05/13 07:28:21;;;;;;;1.90;1.50;;;13.20;99.90;;;;;;4975313;28;20258;-74
2023/05/13 07:30:46;;;;;;;2.07;1.97;;;13.20;99.90;;;;;;4975020;28;20179;-71
2023/05/13 07:33:12;;;;;;;2.00;1.13;;;13.20;99.90;;;;;;4957367;28;20473;-73
2023/05/13 07:35:38;;;;;;;1.27;1.27;;;13.30;99.90;;;;;;4975227;28;20196;-72
2023/05/13 07:38:05;;;;;;;2.93;2.27;;;13.30;99.90;;;;;;4957032;28;20490;-71
2023/05/13 07:40:31;;;;;;;1.87;1.77;;;13.30;99.90;;;;;;4974681;28;20202;-72
2023/05/13 07:42:57;;;;;;;1.57;1.50;;;13.20;99.90;;;;;;4975026;28;20414;-69
2023/05/13 07:45:22;;;;;;;2.33;2.13;;;13.20;99.90;;;;;;4974421;28;20192;-73
2023/05/13 07:47:48;;;;;;;2.20;2.10;;;13.10;99.90;;;;;;4974814;28;20175;-69
2023/05/13 07:50:13;;;;;;;1.90;1.73;;;13.10;99.90;;;;;;4974980;28;20226;-72
2023/05/13 07:52:39;;;;;;;1.60;1.50;;;13.10;99.90;;;;;;4974756;28;20179;-68
2023/05/13 07:55:05;;;;;;;1.87;1.77;;;13.20;99.90;;;;;;4973533;28;20202;-73
2023/05/13 07:57:30;;;;;;;1.60;1.50;;;13.30;99.90;;;;;;4976674;28;20182;-69
2023/05/13 07:59:56;;;;;;;1.97;1.87;;;13.30;99.90;;;;;;4994102;28;20537;-73
2023/05/13 08:02:23;;;;;;;1.80;1.70;;;13.40;99.90;;;;;;4994122;28;20171;-70
2023/05/13 08:04:48;;;;;;;2.00;1.90;;;13.40;99.90;;;;;;4993771;28;20653;-71
2023/05/13 08:07:14;;;;;;;1.60;1.50;;;13.40;99.90;;;;;;4994046;28;20529;-70
2023/05/13 08:09:40;;;;;;;1.47;1.37;;;13.40;99.90;;;;;;4976638;28;20691;-71
2023/05/13 08:12:05;;;;;;;1.50;1.40;;;13.40;99.90;;;;;;4974404;28;20172;-67
2023/05/13 08:14:31;;;;;;;1.90;1.80;;;13.40;99.90;;;;;;4974049;28;20190;-71
2023/05/13 08:16:57;;;;;;;1.73;1.63;;;13.30;99.90;;;;;;4974739;28;20738;-72
2023/05/13 08:19:22;;;;;;;1.30;1.23;;;13.40;99.90;;;;;;4974908;28;20180;-72
2023/05/13 08:21:48;;;;;;;1.70;1.60;;;13.40;99.90;;;;;;4974571;28;20172;-72
2023/05/13 08:24:13;;;;;;;2.47;1.90;;;13.40;99.90;;;;;;4973469;28;20199;-69
2023/05/13 08:26:39;;;;;;;1.77;1.67;;;13.40;99.90;;;;;;4974023;28;20672;-73
2023/05/13 08:29:05;;;;;;;1.57;1.57;;;13.50;99.90;;;;;;4975190;28;20524;-72
2023/05/13 08:31:31;;;;;;;2.70;2.50;;;13.40;99.90;;;;;;4957278;28;20192;-72
2023/05/13 08:33:56;;;;;;;2.10;1.90;;;13.40;99.90;;;;;;4982900;28;20252;-73
2023/05/13 08:36:24;;;;;;;1.87;1.77;;;13.30;99.90;;;;;;4994184;28;20406;-72
2023/05/13 08:38:50;;;;;;;2.47;2.27;;;13.30;99.90;;;;;;4993880;28;20418;-70
2023/05/13 08:41:15;;;;;;;1.70;1.60;;;13.30;99.90;;;;;;4993753;28;20462;-71
2023/05/13 08:43:46;;;;;;;1.53;1.43;;;13.30;99.90;;;;;;4993581;28;20185;-73
2023/05/13 08:46:15;;;;;;;2.00;1.83;;;13.20;99.90;;;;;;4994216;28;20542;-70
2023/05/13 08:48:41;;;;;;;2.60;2.50;;;13.20;99.90;;;;;;4998277;28;20421;-71
2023/05/13 08:51:11;;;;;;;2.60;2.40;;;13.30;99.90;;;;;;4996958;28;20425;-71
2023/05/13 08:53:38;;;;;;;1.97;1.73;;;13.30;99.90;;;;;;4976433;28;20934;-71
2023/05/13 08:56:06;;;;;;;1.77;1.70;;;13.40;99.90;;;;;;4975797;28;20437;-70
2023/05/13 08:58:32;;;;;;;1.47;1.37;;;13.40;99.90;;;;;;4976147;28;20421;-71
2023/05/13 09:00:58;;;;;;;1.70;1.60;;;13.40;99.90;;;;;;4976537;28;20553;-71
2023/05/13 09:03:26;;;;;;;1.30;1.30;;;13.40;99.90;;;;;;4974577;28;20180;-71
2023/05/13 09:05:52;;;;;;;1.53;1.43;;;13.40;99.90;;;;;;4973781;28;20843;-69
2023/05/13 09:08:17;;;;;;;1.77;1.67;;;13.40;99.90;;;;;;4992067;28;20581;-70
2023/05/13 09:10:43;;;;;;;1.57;1.47;;;13.40;99.90;;;;;;4993369;28;20261;-70
2023/05/13 09:13:11;;;;;;;1.80;1.70;;;13.50;99.90;;;;;;4993015;28;20318;-71
2023/05/13 09:15:41;;;;;;;1.93;1.83;;;13.60;99.90;;;;;;4993358;28;20201;-70
2023/05/13 09:18:06;;;;;;;1.90;1.47;;;13.70;99.90;;;;;;4993206;28;20420;-72
2023/05/13 09:20:33;;;;;;;1.60;1.50;;;13.80;99.90;;;;;;4994614;28;20438;-70
2023/05/13 09:23:08;;;;;;;1.90;1.80;;;14.00;99.90;;;;;;4961235;28;20176;-71
2023/05/13 09:25:35;;;;;;;1.67;1.63;;;14.10;99.90;;;;;;4977252;28;20434;-71
2023/05/13 09:28:02;;;;;;;1.83;1.73;;;14.10;99.90;;;;;;4977331;28;20432;-70
2023/05/13 09:30:29;;;;;;;1.93;1.83;;;14.20;99.90;;;;;;4977144;28;20427;-71
2023/05/13 09:33:16;;;;;;;2.23;2.03;;;14.30;99.90;;;;;;4959570;28;20461;-69
2023/05/13 09:35:42;;;;;;;1.70;1.60;;;14.40;99.90;;;;;;4977415;28;20518;-72
2023/05/13 09:38:27;;;;;;;1.30;1.20;;;14.50;99.90;;;;;;4976966;28;20423;-72
2023/05/13 09:40:58;;;;;;;1.60;1.60;;;14.50;99.90;;;;;;4976891;28;20434;-71
2023/05/13 09:43:25;;;;;;;2.60;2.13;;;14.60;99.90;;;;;;4976963;28;20411;-70
2023/05/13 09:45:55;;;;;;;1.57;1.47;;;14.70;99.90;;;;;;4977071;28;20929;-68
2023/05/13 09:48:27;;;;;;;0.83;0.83;;;14.70;99.90;;;;;;4977235;28;20972;-71
2023/05/13 09:50:54;;;;;;;1.70;1.60;;;14.80;99.90;;;;;;4977313;28;20408;-72
2023/05/13 09:53:20;;;;;;;1.00;1.00;;;14.80;99.90;;;;;;4976656;28;20814;-73
2023/05/13 09:55:47;;;;;;;2.43;1.10;;;14.90;99.90;;;;;;4991907;28;20438;-71
2023/05/13 09:58:13;;;;;;;1.43;1.33;;;14.80;99.90;;;;;;4996183;28;20414;-72
2023/05/13 10:00:40;;;;;;;2.00;1.80;;;14.80;99.90;;;;;;4996084;28;20843;-69
2023/05/13 10:03:06;;;;;;;1.70;1.60;;;14.80;99.90;;;;;;4995840;28;20175;-73
2023/05/13 10:05:32;;;;;;;1.73;1.63;;;14.80;99.90;;;;;;4996103;28;20517;-70
2023/05/13 10:08:00;;;;;;;1.73;1.37;;;14.80;99.90;;;;;;4992626;28;20774;-71
2023/05/13 10:10:29;;;;;;;1.30;1.20;;;14.90;99.90;;;;;;4976801;28;20411;-71
2023/05/13 10:12:55;;;;;;;1.80;1.70;;;14.90;99.90;;;;;;4976465;28;20491;-72
2023/05/13 10:15:22;;;;;;;2.03;1.93;;;14.90;99.90;;;;;;4976086;28;20427;-71
2023/05/13 10:17:48;;;;;;;1.60;1.50;;;14.90;99.90;;;;;;4976371;28;20418;-69
2023/05/13 10:20:14;;;;;;;1.47;1.37;;;14.80;99.90;;;;;;4958948;28;20545;-73
2023/05/13 10:22:40;;;;;;;1.17;1.17;;;14.80;99.90;;;;;;4976187;28;20938;-69
2023/05/13 10:25:07;;;;;;;2.30;2.20;;;14.70;99.90;;;;;;4976115;28;20688;-70
2023/05/13 10:27:33;;;;;;;2.07;1.93;;;14.70;99.90;;;;;;4976556;28;20901;-69
2023/05/13 10:30:00;;;;;;;1.63;1.53;;;14.70;99.90;;;;;;4976768;28;20487;-72
2023/05/13 10:32:29;;;;;;;2.10;1.90;;;14.70;99.90;;;;;;4975754;28;20172;-70
2023/05/13 10:35:16;;;;;;;2.20;2.00;;;14.60;99.90;;;;;;4975230;28;20937;-72
2023/05/13 10:37:45;;;;;;;3.83;1.80;;;14.60;99.90;;;;;;4976344;28;20407;-70
2023/05/13 10:40:46;;;;;;;1.73;1.63;;;14.60;99.90;;;;;;4989097;28;20450;-71
2023/05/13 10:43:19;;;;;;;2.43;2.07;;;14.70;99.90;;;;;;4995201;28;20485;-72
2023/05/13 10:45:47;;;;;;;2.30;1.93;;;14.70;99.90;;;;;;4995542;28;20431;-69
2023/05/13 10:48:14;;;;;;;1.70;1.60;;;14.70;99.90;;;;;;4995233;28;20408;-73
2023/05/13 10:50:51;;;;;;;2.30;1.57;;;14.90;99.90;;;;;;4995513;28;20414;-71
2023/05/13 10:53:21;;;;;;;2.10;2.00;;;15.00;99.90;;;;;;4977078;28;20410;-70
2023/05/13 10:55:52;;;;;;;4.07;1.90;;;15.10;99.90;;;;;;4995112;28;20465;-70
2023/05/13 10:58:21;;;;;;;1.80;1.70;;;15.10;99.90;;;;;;4995371;28;20912;-71
2023/05/13 11:00:47;;;;;;;2.03;1.83;;;15.20;99.90;;;;;;4995055;28;20442;-70
2023/05/13 11:03:18;;;;;;;1.80;1.70;;;15.30;99.90;;;;;;4995014;28;20758;-70
2023/05/13 11:05:46;;;;;;;2.10;1.97;;;15.30;99.90;;;;;;4995153;28;20293;-71
2023/05/13 11:08:31;;;;;;;2.10;2.00;;;15.40;99.90;;;;;;4979598;28;20416;-71
2023/05/13 11:10:57;;;;;;;2.97;2.67;;;15.40;99.90;;;;;;4975349;28;20422;-69
2023/05/13 11:13:34;;;;;;;1.40;1.40;;;15.30;99.90;;;;;;4975179;28;20408;-71
2023/05/13 11:15:59;;;;;;;1.47;1.40;;;15.30;99.90;;;;;;4975502;28;20193;-70
2023/05/13 11:18:30;;;;;;;2.03;1.93;;;15.30;99.90;;;;;;4975383;28;20985;-70
2023/05/13 11:21:03;;;;;;;1.67;1.57;;;15.20;99.90;;;;;;4975334;28;20679;-69
2023/05/13 11:23:31;;;;;;;1.97;1.87;;;15.30;99.90;;;;;;4955727;29;20772;-71
2023/05/13 11:26:15;;;;;;;1.43;1.33;;;15.30;99.90;;;;;;4955727;28;20429;-69
2023/05/13 11:28:57;;;;;;;2.30;2.20;;;15.50;99.90;;;;;;4956180;29;20402;-72
2023/05/13 11:31:25;;;;;;;2.10;2.00;;;15.60;99.90;;;;;;4956069;29;20406;-71
2023/05/13 11:34:11;;;;;;;2.47;2.37;;;15.80;99.90;;;;;;4955607;28;20912;-71
2023/05/13 11:36:42;;;;;;;1.90;1.80;;;15.90;99.90;;;;;;4969306;28;20431;-72
2023/05/13 11:39:20;;;;;;;2.10;2.00;;;15.90;99.90;;;;;;4994359;28;20432;-70
2023/05/13 11:41:49;;;;;;;2.10;2.00;;;16.00;99.90;;;;;;4994388;28;20416;-71
2023/05/13 11:44:20;;;;;;;2.03;1.93;;;16.00;99.90;;;;;;4993050;28;20515;-68
2023/05/13 11:46:57;;;;;;;1.67;1.57;;;15.90;99.90;;;;;;4994389;28;20405;-70
2023/05/13 11:49:32;;;;;;;2.47;2.00;;;15.70;99.90;;;;;;4994220;28;20509;-70
2023/05/13 11:52:09;;;;;;;2.17;1.97;;;15.70;99.90;;;;;;4977157;28;20417;-71
2023/05/13 11:54:46;;;;;;;2.47;1.80;;;15.50;99.90;;;;;;4974428;28;20496;-70
2023/05/13 11:57:22;;;;;;;1.70;1.60;;;15.40;99.90;;;;;;4974639;28;20399;-68
2023/05/13 12:00:03;;;;;;;1.90;1.80;;;15.20;99.90;;;;;;4974624;28;20447;-72
2023/05/13 12:02:37;;;;;;;2.10;2.00;;;15.00;99.90;;;;;;4974790;28;20828;-69
2023/05/13 12:05:11;;;;;;;2.00;1.90;;;14.80;99.90;;;;;;4977006;28;20915;-71
2023/05/13 12:07:38;;;;;;;1.97;1.77;;;14.70;99.90;;;;;;4976361;28;20509;-68
2023/05/13 12:10:05;;;;;;;1.60;1.50;;;14.60;99.90;;;;;;4994062;28;20407;-71
2023/05/13 12:12:34;;;;;;;1.63;1.53;;;14.60;99.90;;;;;;4994113;28;20398;-69
2023/05/13 12:15:09;;;;;;;2.27;2.07;;;14.70;99.90;;;;;;4993415;28;20431;-70
2023/05/13 12:17:35;;;;;;;1.93;1.83;;;14.70;99.90;;;;;;4977033;28;20469;-70
2023/05/13 12:20:11;;;;;;;1.80;1.70;;;14.70;99.90;;;;;;4979495;28;20478;-70
2023/05/13 12:22:42;;;;;;;1.37;1.27;;;14.80;99.90;;;;;;4974477;28;20513;-69
2023/05/13 12:25:44;;;;;;;1.97;1.87;;;14.90;99.90;;;;;;4973951;28;20806;-70
2023/05/13 12:28:16;;;;;;;1.50;1.40;;;15.00;99.90;;;;;;4974642;28;20398;-70
2023/05/13 12:31:04;;;;;;;1.63;1.53;;;15.10;99.90;;;;;;4974298;28;20453;-70
2023/05/13 12:33:41;;;;;;;1.67;1.57;;;15.20;99.90;;;;;;4977612;28;20414;-71
2023/05/13 12:36:18;;;;;;;2.30;2.10;;;15.40;99.90;;;;;;4993750;28;20825;-69
2023/05/13 12:39:02;;;;;;;1.67;1.57;;;15.60;99.90;;;;;;4993682;28;20404;-71
2023/05/13 12:41:29;;;;;;;1.47;1.47;;;15.80;99.90;;;;;;4993600;28;20459;-69
2023/05/13 12:44:00;;;;;;;1.97;1.83;;;16.10;99.90;;;;;;4993296;28;20420;-69
2023/05/13 12:46:26;;;;;;;1.90;1.80;;;16.40;99.90;;;;;;4993596;28;20388;-72
2023/05/13 12:48:55;;;;;;;2.10;1.53;;;16.60;99.90;;;;;;4993664;28;20828;-71
2023/05/13 12:51:20;;;;;;;1.93;1.83;;;16.80;99.90;;;;;;4993386;28;20406;-70
2023/05/13 12:53:46;;;;;;;1.73;1.63;;;17.00;99.90;;;;;;4973986;28;20427;-71
2023/05/13 12:56:12;;;;;;;1.40;1.40;;;17.20;99.90;;;;;;4976758;28;20176;-71
2023/05/13 12:58:37;;;;;;;1.60;1.50;;;17.30;99.90;;;;;;4978011;28;20176;-72
2023/05/13 13:01:03;;;;;;;1.83;1.73;;;17.20;99.90;;;;;;4977955;28;20548;-72
2023/05/13 13:03:29;;;;;;;3.10;2.37;;;17.10;99.90;;;;;;4977744;28;20221;-73
2023/05/13 13:05:56;;;;;;;2.93;1.90;;;17.10;99.90;;;;;;4977511;28;20201;-71
2023/05/13 13:08:22;;;;;;;3.20;1.77;;;16.80;99.90;;;;;;4995435;28;20210;-71
2023/05/13 13:10:48;;;;;;;1.97;1.87;;;16.60;99.90;;;;;;4997157;28;20777;-71
2023/05/13 13:13:13;;;;;;;1.63;1.53;;;16.40;99.90;;;;;;4997142;28;20558;-72
2023/05/13 13:15:39;;;;;;;2.10;2.00;;;16.20;99.90;;;;;;4997155;28;20654;-71
2023/05/13 13:18:05;;;;;;;1.80;1.70;;;16.20;99.90;;;;;;4997671;28;20226;-72
2023/05/13 13:20:30;;;;;;;2.80;2.30;;;16.20;99.90;;;;;;4997143;28;20251;-70
2023/05/13 13:22:58;;;;;;;1.63;1.53;;;16.40;99.90;;;;;;4979839;28;20219;-71
2023/05/13 13:25:25;;;;;;;1.80;1.63;;;16.50;99.90;;;;;;4977104;28;20187;-69
2023/05/13 13:27:50;;;;;;;1.80;1.70;;;16.60;99.90;;;;;;4977747;28;20406;-70
2023/05/13 13:30:16;;;;;;;1.80;1.70;;;16.80;99.90;;;;;;4977531;28;20400;-71
2023/05/13 13:32:41;;;;;;;2.17;2.03;;;16.90;99.90;;;;;;4977482;28;20725;-69
2023/05/13 13:35:07;;;;;;;1.73;1.63;;;17.00;99.90;;;;;;4976831;28;20197;-71
2023/05/13 13:37:33;;;;;;;2.57;2.20;;;17.10;99.90;;;;;;4975282;28;20645;-70
2023/05/13 13:39:58;;;;;;;1.93;1.80;;;17.00;99.90;;;;;;4996496;28;20446;-73
2023/05/13 13:42:24;;;;;;;1.90;1.70;;;16.90;99.90;;;;;;4996595;28;20718;-70
2023/05/13 13:44:50;;;;;;;1.90;1.80;;;16.70;99.90;;;;;;4996060;28;20194;-71
2023/05/13 13:47:15;;;;;;;2.10;2.00;;;16.60;99.90;;;;;;4996635;28;20265;-70
2023/05/13 13:49:41;;;;;;;1.80;1.70;;;16.50;99.90;;;;;;4996357;28;20170;-72
2023/05/13 13:52:07;;;;;;;1.93;1.60;;;16.30;99.90;;;;;;4981901;28;20648;-70
2023/05/13 13:54:33;;;;;;;2.30;2.10;;;16.20;99.90;;;;;;4976719;28;20224;-72
2023/05/13 13:56:58;;;;;;;2.23;2.13;;;16.00;99.90;;;;;;4976899;28;20408;-72
2023/05/13 13:59:24;;;;;;;1.80;1.70;;;15.90;99.90;;;;;;4976785;28;20168;-72
2023/05/13 14:01:50;;;;;;;1.90;1.80;;;15.70;99.90;;;;;;4976978;28;20169;-71
2023/05/13 14:04:22;;;;;;;1.73;1.63;;;15.70;99.90;;;;;;4976234;28;20190;-69
2023/05/13 14:06:48;;;;;;;1.83;1.73;;;15.60;99.90;;;;;;4988994;28;20235;-73
2023/05/13 14:09:14;;;;;;;2.20;2.10;;;15.60;99.90;;;;;;4995795;28;20423;-70
2023/05/13 14:11:40;;;;;;;2.37;2.20;;;15.50;99.90;;;;;;4996247;28;20407;-71
2023/05/13 14:14:07;;;;;;;2.57;2.47;;;15.50;99.90;;;;;;4983095;28;20455;-69
2023/05/13 14:16:32;;;;;;;2.53;2.33;;;15.50;99.90;;;;;;4976423;28;20190;-71
2023/05/13 14:18:58;;;;;;;1.80;1.70;;;15.40;99.90;;;;;;4976582;28;20405;-70
2023/05/13 14:21:24;;;;;;;1.90;1.80;;;15.50;99.90;;;;;;4976271;28;20200;-70
2023/05/13 14:23:49;;;;;;;2.33;2.13;;;15.60;99.90;;;;;;4976012;28;20169;-68
2023/05/13 14:26:15;;;;;;;3.83;2.47;;;15.70;99.90;;;;;;4976470;28;20165;-70
2023/05/13 14:28:41;;;;;;;2.13;1.93;;;15.80;99.90;;;;;;4976287;28;20204;-71
2023/05/13 14:31:07;;;;;;;2.07;1.93;;;15.90;99.90;;;;;;4976471;28;20202;-70
2023/05/13 14:33:32;;;;;;;8.33;2.27;;;16.00;99.90;;;;;;4975851;28;20918;-71
2023/05/13 14:35:58;;;;;;;2.07;1.97;;;16.10;99.90;;;;;;4976330;28;20189;-71
2023/05/13 14:38:25;;;;;;;2.97;2.67;;;16.20;99.90;;;;;;4976230;28;20175;-71
2023/05/13 14:40:54;;;;;;;2.63;2.37;;;16.40;99.90;;;;;;4975344;28;20645;-69
2023/05/13 14:43:20;;;;;;;3.40;3.17;;;16.50;99.90;;;;;;4958426;28;20407;-71
2023/05/13 14:45:46;;;;;;;2.40;2.23;;;16.70;99.90;;;;;;4975916;28;20437;-70
2023/05/13 14:48:11;;;;;;;2.47;2.27;;;16.80;99.90;;;;;;4975924;28;20418;-71
2023/05/13 14:50:37;;;;;;;2.50;2.30;;;16.80;99.90;;;;;;4975915;28;20201;-70
2023/05/13 14:53:03;;;;;;;1.80;1.70;;;16.80;99.90;;;;;;4975908;28;20175;-71
2023/05/13 14:55:28;;;;;;;2.87;2.67;;;16.70;99.90;;;;;;4970869;28;20213;-71
2023/05/13 14:57:54;;;;;;;2.10;1.97;;;16.70;99.90;;;;;;4995400;28;20260;-70
2023/05/13 15:00:19;;;;;;;2.80;2.60;;;16.60;99.90;;;;;;4995283;28;20197;-72
2023/05/13 15:02:45;;;;;;;3.10;2.90;;;16.50;99.90;;;;;;4995503;28;20231;-70
2023/05/13 15:05:11;;;;;;;2.10;2.00;;;16.40;99.90;;;;;;4994567;28;20651;-71
2023/05/13 15:07:36;;;;;;;2.43;2.23;;;16.40;99.90;;;;;;4995238;28;20533;-69
2023/05/13 15:10:03;;;;;;;2.13;2.03;;;16.30;99.90;;;;;;4983180;28;20430;-71
2023/05/13 15:12:28;;;;;;;2.80;2.60;;;16.40;99.90;;;;;;4975612;28;20173;-69
2023/05/13 15:14:54;;;;;;;2.50;2.30;;;16.60;99.90;;;;;;4974919;28;20476;-73
2023/05/13 15:17:20;;;;;;;2.83;2.57;;;16.70;99.90;;;;;;4975389;28;20233;-71
2023/05/13 15:19:46;;;;;;;2.77;2.57;;;16.90;99.90;;;;;;4975083;28;20451;-72
2023/05/13 15:22:12;;;;;;;2.50;2.30;;;17.00;99.90;;;;;;4975448;28;20405;-70
2023/05/13 15:24:38;;;;;;;2.60;2.40;;;16.90;99.90;;;;;;4985216;28;20942;-70
2023/05/13 15:27:07;;;;;;;3.33;2.67;;;16.90;99.90;;;;;;4994742;28;20306;-71
2023/05/13 15:29:32;;;;;;;2.67;2.47;;;16.80;99.90;;;;;;4994895;28;20177;-71
2023/05/13 15:31:58;;;;;;;2.67;2.47;;;16.70;99.90;;;;;;4994153;28;20418;-69
2023/05/13 15:34:24;;;;;;;3.40;3.10;;;16.60;99.90;;;;;;4994168;28;20202;-71
2023/05/13 15:36:49;;;;;;;2.60;1.80;;;16.50;99.90;;;;;;4989763;28;20247;-72
2023/05/13 15:39:15;;;;;;;1.90;1.80;;;16.50;99.90;;;;;;4975143;28;20202;-71
2023/05/13 15:41:41;;;;;;;2.40;2.20;;;16.40;99.90;;;;;;4974987;28;20202;-72
2023/05/13 15:44:07;;;;;;;1.27;1.27;;;16.40;99.90;;;;;;4974588;28;20189;-67
2023/05/13 15:46:32;;;;;;;1.93;1.73;;;16.40;99.90;;;;;;4957596;28;20410;-73
2023/05/13 15:48:59;;;;;;;3.20;2.60;;;16.40;99.90;;;;;;4957513;28;20192;-69
2023/05/13 15:51:24;;;;;;;2.10;2.00;;;16.40;99.90;;;;;;4978053;28;20230;-70
2023/05/13 15:53:51;;;;;;;2.63;2.47;;;16.30;99.90;;;;;;4993796;28;20913;-72
2023/05/13 15:56:17;;;;;;;2.27;2.07;;;16.20;99.90;;;;;;4994457;28;20227;-71
2023/05/13 15:58:43;;;;;;;1.73;1.63;;;16.10;99.90;;;;;;4994351;28;20808;-71
2023/05/13 16:01:08;;;;;;;1.70;1.60;;;16.10;99.90;;;;;;4994451;28;20463;-71
2023/05/13 16:03:34;;;;;;;2.17;1.97;;;15.90;99.90;;;;;;4993738;28;20168;-71
2023/05/13 16:06:00;;;;;;;2.13;2.03;;;15.90;99.90;;;;;;4991251;28;20208;-73
2023/05/13 16:08:26;;;;;;;2.17;2.00;;;15.80;99.90;;;;;;4974615;28;20400;-73
2023/05/13 16:10:51;;;;;;;2.47;2.27;;;15.70;99.90;;;;;;4974732;28;20179;-71
2023/05/13 16:13:17;;;;;;;2.53;2.40;;;15.70;99.90;;;;;;4974324;28;20172;-73
2023/05/13 16:15:43;;;;;;;2.27;1.67;;;15.70;99.90;;;;;;4974115;28;20204;-69
2023/05/13 16:18:08;;;;;;;2.63;2.40;;;15.70;99.90;;;;;;4974068;28;20176;-71
2023/05/13 16:20:34;;;;;;;3.67;3.20;;;15.60;99.90;;;;;;4973386;28;20218;-70
2023/05/13 16:22:59;;;;;;;2.30;1.87;;;15.70;99.90;;;;;;4973845;28;20646;-73
2023/05/13 16:25:26;;;;;;;2.07;1.97;;;15.60;99.90;;;;;;4974103;28;20271;-71
2023/05/13 16:27:53;;;;;;;2.10;2.00;;;15.70;99.90;;;;;;4973810;28;20238;-73
2023/05/13 16:30:19;;;;;;;2.23;2.13;;;15.70;99.90;;;;;;4975312;28;20435;-71
2023/05/13 16:32:47;;;;;;;1.83;1.73;;;15.70;99.90;;;;;;4978257;28;20423;-71
2023/05/13 16:35:13;;;;;;;2.27;2.03;;;15.70;99.90;;;;;;4977889;28;20431;-70
2023/05/13 16:37:39;;;;;;;2.40;2.20;;;15.80;99.90;;;;;;4997973;28;20406;-72
2023/05/13 16:40:05;;;;;;;7.13;2.77;;;15.80;99.90;;;;;;4982788;28;20712;-72
2023/05/13 16:42:30;;;;;;;3.50;2.53;;;15.80;99.90;;;;;;4978225;28;20242;-70
2023/05/13 16:44:56;;;;;;;4.33;3.97;;;15.90;99.90;;;;;;4960180;28;20527;-73
2023/05/13 16:47:21;;;;;;;6.60;4.93;;;15.90;99.90;;;;;;4976522;28;20180;-69
2023/05/13 16:49:48;;;;;;;4.10;2.90;;;15.90;99.90;;;;;;4978474;28;20597;-72
2023/05/13 16:52:14;;;;;;;7.03;4.20;;;15.90;99.90;;;;;;4978147;28;20172;-70
2023/05/13 16:54:40;;;;;;;2.57;2.47;;;15.90;99.90;;;;;;4977087;28;20805;-72